createdAt,value
2022-12-09T00:01:55.654Z,21.03
2022-12-09T00:04:24.258Z,20.03
2022-12-09T00:06:54.031Z,18.50
2022-12-09T00:09:22.184Z,20.20
2022-12-09T00:11:52.759Z,20.10
2022-12-09T00:14:20.966Z,18.67
2022-12-09T00:16:49.444Z,18.70
2022-12-09T00:19:17.827Z,19.67
2022-12-09T00:21:45.885Z,21.30
2022-12-09T00:24:15.866Z,17.77
2022-12-09T00:26:44.698Z,21.03
2022-12-09T00:29:13.731Z,19.43
2022-12-09T00:31:41.948Z,18.80
2022-12-09T00:34:13.512Z,17.67
2022-12-09T00:36:42.330Z,21.77
2022-12-09T00:39:13.386Z,18.87
2022-12-09T00:41:43.151Z,16.27
2022-12-09T00:44:11.977Z,21.60
2022-12-09T00:46:40.073Z,17.33
2022-12-09T00:49:08.561Z,17.47
2022-12-09T00:51:36.865Z,18.07
2022-12-09T00:54:05.355Z,17.37
2022-12-09T00:56:33.770Z,18.57
2022-12-09T00:59:03.413Z,19.03
2022-12-09T01:01:31.697Z,17.90
2022-12-09T01:03:59.983Z,17.00
2022-12-09T01:06:28.327Z,17.97
2022-12-09T01:08:56.711Z,19.67
2022-12-09T01:11:26.599Z,18.07
2022-12-09T01:13:57.940Z,17.97
2022-12-09T01:16:29.827Z,18.00
2022-12-09T01:19:00.582Z,16.57
2022-12-09T01:21:29.413Z,16.70
2022-12-09T01:23:58.106Z,14.27
2022-12-09T01:26:26.498Z,15.87
2022-12-09T01:28:55.708Z,17.53
2022-12-09T01:31:25.853Z,15.53
2022-12-09T01:33:56.016Z,14.67
2022-12-09T01:36:26.848Z,14.93
2022-12-09T01:38:56.083Z,16.00
2022-12-09T01:41:25.071Z,13.63
2022-12-09T01:44:15.472Z,14.17
2022-12-09T01:46:44.364Z,14.57
2022-12-09T01:49:18.357Z,14.53
2022-12-09T01:51:53.303Z,13.90
2022-12-09T01:54:22.027Z,13.87
2022-12-09T01:56:50.661Z,14.80
2022-12-09T01:59:19.300Z,13.97
2022-12-09T02:01:51.922Z,14.83
2022-12-09T02:04:21.448Z,14.53
2022-12-09T02:06:50.144Z,13.10
2022-12-09T02:09:18.688Z,13.33
2022-12-09T02:11:59.563Z,14.20
2022-12-09T02:14:36.829Z,12.03
2022-12-09T02:17:22.790Z,12.33
2022-12-09T02:20:01.884Z,10.40
2022-12-09T02:22:34.642Z,12.80
2022-12-09T02:25:16.923Z,12.83
2022-12-09T02:27:49.721Z,11.93
2022-12-09T02:30:20.607Z,11.17
2022-12-09T02:33:07.205Z,13.50
2022-12-09T02:35:43.488Z,12.20
2022-12-09T02:38:17.218Z,12.57
2022-12-09T02:40:51.698Z,12.13
2022-12-09T02:43:25.450Z,11.27
2022-12-09T02:45:56.278Z,13.27
2022-12-09T02:48:29.086Z,12.87
2022-12-09T02:51:00.388Z,12.63
2022-12-09T02:53:29.156Z,12.80
2022-12-09T02:55:58.024Z,12.77
2022-12-09T02:58:26.097Z,12.00
2022-12-09T03:00:57.401Z,12.27
2022-12-09T03:03:26.545Z,11.93
2022-12-09T03:06:02.294Z,13.50
2022-12-09T03:08:38.110Z,12.97
2022-12-09T03:11:09.891Z,12.67
2022-12-09T03:13:52.511Z,20.83
2022-12-09T03:16:26.992Z,12.90
2022-12-09T03:19:00.784Z,12.13
2022-12-09T03:21:34.087Z,13.13
2022-12-09T03:24:03.811Z,16.43
2022-12-09T03:26:34.591Z,14.50
2022-12-09T03:29:08.104Z,11.60
2022-12-09T03:31:38.274Z,13.57
2022-12-09T03:34:11.536Z,12.13
2022-12-09T03:36:47.946Z,13.17
2022-12-09T03:39:21.212Z,11.90
2022-12-09T03:41:53.229Z,11.97
2022-12-09T03:44:27.109Z,12.37
2022-12-09T03:46:55.759Z,13.27
2022-12-09T03:49:24.218Z,12.40
2022-12-09T03:51:58.524Z,13.23
2022-12-09T03:54:30.956Z,14.13
2022-12-09T03:57:00.508Z,13.80
2022-12-09T03:59:32.326Z,13.40
2022-12-09T04:02:00.967Z,13.80
2022-12-09T04:04:29.624Z,13.90
2022-12-09T04:06:59.881Z,13.73
2022-12-09T04:09:28.033Z,14.30
2022-12-09T04:11:56.176Z,13.20
2022-12-09T04:14:24.290Z,13.43
2022-12-09T04:16:52.466Z,13.37
2022-12-09T04:19:20.983Z,13.83
2022-12-09T04:21:49.431Z,15.30
2022-12-09T04:24:19.036Z,14.40
2022-12-09T04:26:47.553Z,14.87
2022-12-09T04:29:16.014Z,13.93
2022-12-09T04:31:44.606Z,15.50
2022-12-09T04:34:12.807Z,16.20
2022-12-09T04:36:41.717Z,17.57
2022-12-09T04:39:10.147Z,16.57
2022-12-09T04:41:39.746Z,16.57
2022-12-09T04:44:08.395Z,15.03
2022-12-09T04:46:36.705Z,14.97
2022-12-09T04:49:05.510Z,14.73
2022-12-09T04:51:39.642Z,14.70
2022-12-09T04:54:09.118Z,15.53
2022-12-09T04:56:37.575Z,14.73
2022-12-09T04:59:07.497Z,15.57
2022-12-09T05:01:36.413Z,16.13
2022-12-09T05:04:05.453Z,16.27
2022-12-09T05:06:34.400Z,15.37
2022-12-09T05:09:02.909Z,16.20
2022-12-09T05:11:31.301Z,15.37
2022-12-09T05:13:59.784Z,16.53
2022-12-09T05:16:29.748Z,16.67
2022-12-09T05:19:00.676Z,14.83
2022-12-09T05:21:29.300Z,15.40
2022-12-09T05:23:57.708Z,14.50
2022-12-09T05:26:25.892Z,15.27
2022-12-09T05:28:54.303Z,15.00
2022-12-09T05:31:24.016Z,14.73
2022-12-09T05:33:54.185Z,14.90
2022-12-09T05:36:25.515Z,15.63
2022-12-09T05:38:55.314Z,14.90
2022-12-09T05:41:25.361Z,15.90
2022-12-09T05:43:54.290Z,20.20
2022-12-09T05:46:23.495Z,15.40
2022-12-09T05:48:53.324Z,15.33
2022-12-09T05:51:25.452Z,15.10
2022-12-09T05:53:54.771Z,15.27
2022-12-09T05:56:25.478Z,15.33
2022-12-09T05:58:54.655Z,15.37
2022-12-09T06:01:24.442Z,15.83
2022-12-09T06:03:55.416Z,15.40
2022-12-09T06:06:28.098Z,26.97
2022-12-09T06:08:59.691Z,16.17
2022-12-09T06:11:29.124Z,15.87
2022-12-09T06:13:57.731Z,17.00
2022-12-09T06:16:26.559Z,16.43
2022-12-09T06:18:56.985Z,16.43
2022-12-09T06:21:25.513Z,17.83
2022-12-09T06:23:54.290Z,15.73
2022-12-09T06:26:24.700Z,16.60
2022-12-09T06:28:53.740Z,18.40
2022-12-09T06:31:23.116Z,16.63
2022-12-09T06:33:57.121Z,16.10
2022-12-09T06:36:29.286Z,15.20
2022-12-09T06:39:07.701Z,16.03
2022-12-09T06:41:37.958Z,15.20
2022-12-09T06:44:06.298Z,16.20
2022-12-09T06:46:34.541Z,16.07
2022-12-09T06:49:02.942Z,16.63
2022-12-09T06:51:33.296Z,15.13
2022-12-09T06:54:01.702Z,15.23
2022-12-09T06:56:32.653Z,16.13
2022-12-09T06:59:01.319Z,15.40
2022-12-09T07:01:30.050Z,15.57
2022-12-09T07:03:58.862Z,14.63
2022-12-09T07:06:30.988Z,13.77
2022-12-09T07:09:07.285Z,15.37
2022-12-09T07:11:36.120Z,13.00
2022-12-09T07:14:05.583Z,13.77
2022-12-09T07:16:35.126Z,12.40
2022-12-09T07:19:04.411Z,12.80
2022-12-09T07:21:33.218Z,13.70
2022-12-09T07:24:04.616Z,13.23
2022-12-09T07:26:33.720Z,13.93
2022-12-09T07:29:03.089Z,14.17
2022-12-09T07:31:31.817Z,17.47
2022-12-09T07:34:01.001Z,15.07
2022-12-09T07:36:32.221Z,15.57
2022-12-09T07:39:02.420Z,18.70
2022-12-09T07:41:32.404Z,15.33
2022-12-09T07:44:01.279Z,13.77
2022-12-09T07:46:29.923Z,12.13
2022-12-09T07:48:59.568Z,13.47
2022-12-09T07:51:29.576Z,14.20
2022-12-09T07:53:58.670Z,12.33
2022-12-09T07:56:28.449Z,13.37
2022-12-09T07:58:58.879Z,12.47
2022-12-09T08:01:31.024Z,13.10
2022-12-09T08:03:59.786Z,12.33
2022-12-09T08:06:30.353Z,14.17
2022-12-09T08:09:00.729Z,13.27
2022-12-09T08:11:31.863Z,14.30
2022-12-09T08:14:08.997Z,13.83
2022-12-09T08:16:39.539Z,13.57
2022-12-09T08:19:08.405Z,14.63
2022-12-09T08:21:37.568Z,14.20
2022-12-09T08:24:07.740Z,14.83
2022-12-09T08:26:39.498Z,15.10
2022-12-09T08:29:11.864Z,17.83
2022-12-09T08:31:42.835Z,14.83
2022-12-09T08:34:12.180Z,15.97
2022-12-09T08:36:41.038Z,15.50
2022-12-09T08:39:10.087Z,15.67
2022-12-09T08:41:40.164Z,13.93
2022-12-09T08:44:12.231Z,15.07
2022-12-09T08:46:43.650Z,14.10
2022-12-09T08:49:18.909Z,15.27
2022-12-09T08:51:48.434Z,16.27
2022-12-09T08:54:16.772Z,14.57
2022-12-09T08:56:46.834Z,16.73
2022-12-09T08:59:17.141Z,17.40
2022-12-09T09:01:45.810Z,17.53
2022-12-09T09:04:17.581Z,16.00
2022-12-09T09:06:50.253Z,15.93
2022-12-09T09:09:20.287Z,16.00
2022-12-09T09:11:49.547Z,17.73
2022-12-09T09:14:19.339Z,18.00
2022-12-09T09:16:48.049Z,17.53
2022-12-09T09:19:19.538Z,17.50
2022-12-09T09:21:48.144Z,16.30
2022-12-09T09:24:19.226Z,17.40
2022-12-09T09:26:49.314Z,16.17
2022-12-09T09:29:21.266Z,17.67
2022-12-09T09:31:54.585Z,22.90
2022-12-09T09:34:24.217Z,17.17
2022-12-09T09:36:52.925Z,18.27
2022-12-09T09:39:22.285Z,18.60
2022-12-09T09:41:54.504Z,17.37
2022-12-09T09:44:30.596Z,18.27
2022-12-09T09:46:59.698Z,19.07
2022-12-09T09:49:36.474Z,18.13
2022-12-09T09:52:09.486Z,17.67
2022-12-09T09:54:37.945Z,17.80
2022-12-09T09:57:14.867Z,19.80
2022-12-09T09:59:55.923Z,22.03
2022-12-09T10:02:40.999Z,19.83
2022-12-09T10:05:24.087Z,18.93
2022-12-09T10:07:56.430Z,18.97
2022-12-09T10:10:37.401Z,21.27
2022-12-09T10:13:18.729Z,20.80
2022-12-09T10:16:00.696Z,20.27
2022-12-09T10:18:34.483Z,19.57
2022-12-09T10:21:03.293Z,21.00
2022-12-09T10:23:33.079Z,20.63
2022-12-09T10:26:06.295Z,21.23
2022-12-09T10:28:38.393Z,19.50
2022-12-09T10:31:08.629Z,20.77
2022-12-09T10:33:39.129Z,22.57
2022-12-09T10:36:22.062Z,19.33
2022-12-09T10:38:50.896Z,21.57
2022-12-09T10:41:50.076Z,21.13
2022-12-09T10:44:23.953Z,26.47
2022-12-09T10:47:01.340Z,25.47
2022-12-09T10:49:30.419Z,26.07
2022-12-09T10:52:00.118Z,27.30
2022-12-09T10:54:34.281Z,28.20
2022-12-09T10:57:07.257Z,26.03
2022-12-09T10:59:37.486Z,28.93
2022-12-09T11:02:23.830Z,28.90
2022-12-09T11:04:52.541Z,29.03
2022-12-09T11:07:23.937Z,28.87
2022-12-09T11:10:04.204Z,28.07
2022-12-09T11:12:40.972Z,26.57
2022-12-09T11:15:28.704Z,27.50
2022-12-09T11:18:01.556Z,27.47
2022-12-09T11:20:31.843Z,25.67
2022-12-09T11:23:03.466Z,26.60
2022-12-09T11:25:33.843Z,28.17
2022-12-09T11:28:04.783Z,29.47
2022-12-09T11:30:36.627Z,30.10
2022-12-09T11:33:25.413Z,27.87
2022-12-09T11:38:40.446Z,25.50
2022-12-09T11:41:38.812Z,24.23
2022-12-09T11:44:22.103Z,24.23
2022-12-09T11:46:59.381Z,27.93
2022-12-09T11:49:30.864Z,26.27
2022-12-09T11:52:06.546Z,26.83
2022-12-09T11:54:41.677Z,26.60
2022-12-09T11:57:19.174Z,26.80
2022-12-09T11:59:52.115Z,27.17
2022-12-09T12:02:29.757Z,28.87
2022-12-09T12:05:04.287Z,27.43
2022-12-09T12:07:41.399Z,25.63
2022-12-09T12:10:20.796Z,28.10
2022-12-09T12:13:00.955Z,26.50
2022-12-09T12:15:36.151Z,28.07
2022-12-09T12:18:10.239Z,27.67
2022-12-09T12:20:50.418Z,28.80
2022-12-09T12:23:33.561Z,33.53
2022-12-09T12:26:07.997Z,28.20
2022-12-09T12:29:03.966Z,31.43
2022-12-09T12:31:53.350Z,28.23
2022-12-09T12:34:28.377Z,28.97
2022-12-09T12:37:08.050Z,28.33
2022-12-09T12:39:51.232Z,30.23
2022-12-09T12:42:29.038Z,31.67
2022-12-09T12:45:21.643Z,33.47
2022-12-09T12:47:58.516Z,31.40
2022-12-09T12:50:44.792Z,29.50
2022-12-09T12:53:26.453Z,32.33
2022-12-09T12:56:01.099Z,31.47
2022-12-09T12:58:42.878Z,30.53
2022-12-09T13:01:21.769Z,29.97
2022-12-09T13:03:58.829Z,34.50
2022-12-09T13:06:37.440Z,33.43
2022-12-09T13:09:13.932Z,34.43
2022-12-09T13:11:57.442Z,33.37
2022-12-09T13:14:33.051Z,34.00
2022-12-09T13:17:03.076Z,35.73
2022-12-09T13:19:38.572Z,32.77
2022-12-09T13:22:09.936Z,33.37
2022-12-09T13:24:44.309Z,33.37
2022-12-09T13:27:19.293Z,31.83
2022-12-09T13:29:58.554Z,28.77
2022-12-09T13:32:50.542Z,29.43
2022-12-09T13:35:26.495Z,31.20
2022-12-09T13:37:59.320Z,30.67
2022-12-09T13:40:32.595Z,30.03
2022-12-09T13:43:20.505Z,28.57
2022-12-09T13:45:52.577Z,29.53
2022-12-09T13:48:45.810Z,31.93
2022-12-09T13:51:14.747Z,29.93
2022-12-09T13:53:53.733Z,28.10
2022-12-09T13:56:30.953Z,28.17
2022-12-09T13:59:32.485Z,30.13
2022-12-09T14:02:05.178Z,30.10
2022-12-09T14:04:36.988Z,29.83
2022-12-09T14:07:17.409Z,30.00
2022-12-09T14:09:51.329Z,29.53
2022-12-09T14:12:57.974Z,29.43
2022-12-09T14:15:41.150Z,30.60
2022-12-09T14:18:32.875Z,31.60
2022-12-09T14:21:23.746Z,32.77
2022-12-09T14:24:29.013Z,33.37
2022-12-09T14:27:18.478Z,34.67
2022-12-09T14:29:50.889Z,33.70
2022-12-09T14:32:26.062Z,35.53
2022-12-09T14:35:24.522Z,32.83
2022-12-09T14:38:10.484Z,38.43
2022-12-09T14:40:53.761Z,33.77
2022-12-09T14:43:44.636Z,31.93
2022-12-09T14:46:23.670Z,32.03
2022-12-09T14:48:57.290Z,33.87
2022-12-09T14:51:29.312Z,34.33
2022-12-09T14:54:01.390Z,34.53
2022-12-09T14:56:31.640Z,32.73
2022-12-09T14:59:04.248Z,33.77
2022-12-09T15:01:47.434Z,35.30
2022-12-09T15:04:29.839Z,31.77
2022-12-09T15:07:09.160Z,32.80
2022-12-09T15:09:37.695Z,33.30
2022-12-09T15:12:11.437Z,32.80
2022-12-09T15:14:41.839Z,33.60
2022-12-09T15:17:14.731Z,35.97
2022-12-09T15:20:00.808Z,34.60
2022-12-09T15:22:32.614Z,36.43
2022-12-09T15:25:02.497Z,39.40
2022-12-09T15:27:31.524Z,34.23
2022-12-09T15:29:59.633Z,33.60
2022-12-09T15:32:29.942Z,34.00
2022-12-09T15:35:19.230Z,33.90
2022-12-09T15:37:48.252Z,34.40
2022-12-09T15:40:20.222Z,33.40
2022-12-09T15:42:52.182Z,35.00
2022-12-09T15:45:22.860Z,32.80
2022-12-09T15:47:55.626Z,33.80
2022-12-09T15:50:30.095Z,35.40
2022-12-09T15:53:03.780Z,35.87
2022-12-09T15:55:36.792Z,36.60
2022-12-09T15:58:08.105Z,36.57
2022-12-09T16:00:41.104Z,32.37
2022-12-09T16:03:09.499Z,30.27
2022-12-09T16:05:42.077Z,32.33
2022-12-09T16:08:11.743Z,31.97
2022-12-09T16:10:47.617Z,32.37
2022-12-09T16:13:17.609Z,32.67
2022-12-09T16:15:51.658Z,35.47
2022-12-09T16:18:23.383Z,34.07
2022-12-09T16:21:02.196Z,35.70
2022-12-09T16:23:30.786Z,32.40
2022-12-09T16:26:06.922Z,26.67
2022-12-09T16:28:36.556Z,32.33
2022-12-09T16:31:17.681Z,27.73
2022-12-09T16:33:49.712Z,28.53
2022-12-09T16:36:22.914Z,29.13
2022-12-09T16:39:28.937Z,31.30
2022-12-09T16:42:00.838Z,81.90
2022-12-09T16:44:34.122Z,46.73
2022-12-09T16:47:12.764Z,86.30
2022-12-09T16:49:42.321Z,133.00
2022-12-09T16:52:15.140Z,77.50
2022-12-09T16:54:45.351Z,46.97
2022-12-09T16:57:14.796Z,34.67
2022-12-09T16:59:43.444Z,29.63
2022-12-09T17:02:22.526Z,28.80
2022-12-09T17:04:53.265Z,28.00
2022-12-09T17:07:22.783Z,30.13
2022-12-09T17:09:51.028Z,31.07
2022-12-09T17:12:19.222Z,31.50
2022-12-09T17:14:47.360Z,31.67
2022-12-09T17:17:16.275Z,32.00
2022-12-09T17:19:46.263Z,32.97
2022-12-09T17:22:14.685Z,47.70
2022-12-09T17:24:47.032Z,35.27
2022-12-09T17:27:17.927Z,34.03
2022-12-09T17:29:46.743Z,35.67
2022-12-09T17:32:18.345Z,34.67
2022-12-09T17:34:47.429Z,37.40
2022-12-09T17:37:15.724Z,35.70
2022-12-09T17:39:46.309Z,35.30
2022-12-09T17:42:14.734Z,37.57
2022-12-09T17:44:43.633Z,38.90
2022-12-09T17:47:11.881Z,37.60
2022-12-09T17:49:42.449Z,39.17
2022-12-09T17:52:11.208Z,38.90
2022-12-09T17:54:39.318Z,37.40
2022-12-09T17:57:08.856Z,41.97
2022-12-09T17:59:38.746Z,43.17
2022-12-09T18:02:07.251Z,39.83
2022-12-09T18:04:35.448Z,38.20
2022-12-09T18:07:03.668Z,37.57
2022-12-09T18:09:32.684Z,39.47
2022-12-09T18:12:01.215Z,39.30
2022-12-09T18:14:31.069Z,41.37
2022-12-09T18:16:59.158Z,39.57
2022-12-09T18:19:27.337Z,41.03
2022-12-09T18:21:59.194Z,37.73
2022-12-09T18:24:27.386Z,38.03
2022-12-09T18:26:55.479Z,40.30
2022-12-09T18:29:24.157Z,38.03
2022-12-09T18:31:56.701Z,38.47
2022-12-09T18:34:25.336Z,37.43
2022-12-09T18:36:54.160Z,35.87
2022-12-09T18:39:23.458Z,34.93
2022-12-09T18:41:51.557Z,36.37
2022-12-09T18:44:19.721Z,33.20
2022-12-09T18:46:50.709Z,34.93
2022-12-09T18:49:21.651Z,35.37
2022-12-09T18:51:50.996Z,32.70
2022-12-09T18:54:21.207Z,34.40
2022-12-09T18:56:49.455Z,35.73
2022-12-09T18:59:18.217Z,34.03
2022-12-09T19:01:48.401Z,34.20
2022-12-09T19:04:22.578Z,34.80
2022-12-09T19:06:52.354Z,32.97
2022-12-09T19:09:22.316Z,33.27
2022-12-09T19:11:52.525Z,29.57
2022-12-09T19:14:22.660Z,30.53
2022-12-09T19:16:51.633Z,30.97
2022-12-09T19:19:24.286Z,31.47
2022-12-09T19:21:53.247Z,31.33
2022-12-09T19:24:24.216Z,32.00
2022-12-09T19:26:54.046Z,33.37
2022-12-09T19:29:24.626Z,32.40
2022-12-09T19:31:53.955Z,30.87
2022-12-09T19:34:25.078Z,33.93
2022-12-09T19:36:59.322Z,31.60
2022-12-09T19:39:31.411Z,31.63
2022-12-09T19:42:00.295Z,32.50
2022-12-09T19:45:01.086Z,31.60
2022-12-09T19:47:17.981Z,32.83
2022-12-09T19:49:47.566Z,30.90
2022-12-09T19:52:15.981Z,30.17
2022-12-09T19:54:44.213Z,27.67
2022-12-09T19:57:12.611Z,27.77
2022-12-09T19:59:40.977Z,29.90
2022-12-09T20:02:14.105Z,29.47
2022-12-09T20:04:50.772Z,27.90
2022-12-09T20:07:21.112Z,26.63
2022-12-09T20:09:49.861Z,27.03
2022-12-09T20:12:18.016Z,25.37
2022-12-09T20:14:46.140Z,26.23
2022-12-09T20:17:14.256Z,24.23
2022-12-09T20:19:42.559Z,25.00
2022-12-09T20:22:11.245Z,25.70
2022-12-09T20:24:41.798Z,24.70
2022-12-09T20:27:10.587Z,25.93
2022-12-09T20:29:38.719Z,25.60
2022-12-09T20:32:07.630Z,24.47
2022-12-09T20:34:38.858Z,26.00
2022-12-09T20:37:07.530Z,26.03
2022-12-09T20:39:35.753Z,25.23
2022-12-09T20:55:39.192Z,24.30
2022-12-09T20:58:07.290Z,25.07
2022-12-09T21:00:35.380Z,24.23
2022-12-09T21:03:03.386Z,24.53
2022-12-09T21:05:31.734Z,27.80
2022-12-09T21:08:00.272Z,27.27
2022-12-09T21:10:28.566Z,25.40
2022-12-09T21:12:58.391Z,25.23
2022-12-09T21:15:27.905Z,27.47
2022-12-09T21:17:56.586Z,24.97
2022-12-09T21:20:24.804Z,24.83
2022-12-09T21:23:24.857Z,23.37
2022-12-09T21:25:41.264Z,24.67
2022-12-09T21:28:10.806Z,24.53
2022-12-09T21:30:39.178Z,26.07
2022-12-09T21:33:07.484Z,26.30
2022-12-09T21:35:36.578Z,27.37
2022-12-09T21:38:04.799Z,27.33
2022-12-09T21:40:34.272Z,25.53
2022-12-09T21:43:02.441Z,25.83
2022-12-09T21:45:32.235Z,25.53
2022-12-09T21:48:00.428Z,22.23
2022-12-09T21:50:28.620Z,25.87
2022-12-09T21:52:56.742Z,23.57
2022-12-09T21:55:24.889Z,25.57
2022-12-09T21:57:53.003Z,21.27
2022-12-09T22:00:21.164Z,23.43
2022-12-09T22:02:54.500Z,24.63
2022-12-09T22:05:22.585Z,22.07
2022-12-09T22:07:51.103Z,21.33
2022-12-09T22:10:19.333Z,22.07
2022-12-09T22:12:47.551Z,22.90
2022-12-09T22:15:15.576Z,22.77
2022-12-09T22:17:43.660Z,21.67
2022-12-09T22:20:54.154Z,23.33
2022-12-09T22:23:01.860Z,24.27
2022-12-09T22:25:29.959Z,23.93
2022-12-09T22:27:58.525Z,25.23
2022-12-09T22:30:26.778Z,27.07
2022-12-09T22:32:54.803Z,27.20
2022-12-09T22:35:24.191Z,26.73
2022-12-09T22:37:52.169Z,28.50
2022-12-09T22:40:20.492Z,28.00
2022-12-09T22:42:48.481Z,29.30
2022-12-09T22:45:16.634Z,29.00
2022-12-09T22:47:44.714Z,29.50
2022-12-09T22:50:13.073Z,27.23
2022-12-09T22:52:42.566Z,29.37
2022-12-09T22:55:11.108Z,25.53
2022-12-09T22:57:39.511Z,27.70
2022-12-09T23:00:11.541Z,27.97
2022-12-09T23:02:40.016Z,25.10
2022-12-09T23:05:09.338Z,24.80
2022-12-09T23:07:37.412Z,25.57
2022-12-09T23:10:08.456Z,24.70
2022-12-09T23:12:36.669Z,23.87
2022-12-09T23:15:05.573Z,24.80
2022-12-09T23:17:33.898Z,24.97
2022-12-09T23:20:01.948Z,22.90
2022-12-09T23:22:30.169Z,23.53
2022-12-09T23:24:58.129Z,26.83
2022-12-09T23:27:27.572Z,24.23
2022-12-09T23:29:55.785Z,22.53
2022-12-09T23:32:23.977Z,24.53
2022-12-09T23:34:52.148Z,25.53
2022-12-09T23:37:20.124Z,23.40
2022-12-09T23:39:48.929Z,24.10
2022-12-09T23:42:16.875Z,25.27
2022-12-09T23:44:46.381Z,25.33
2022-12-09T23:47:14.571Z,24.77
2022-12-09T23:49:42.645Z,26.57
2022-12-09T23:52:11.091Z,30.07
2022-12-09T23:54:39.707Z,23.80
2022-12-09T23:57:07.982Z,24.33
2022-12-09T23:59:36.039Z,25.53
